Time;durP1;ratioP1;P1;durP2;ratioP2;P2;SDS_P1;SDS_P2;PMS_P1;PMS_P2;Temp;Humidity;BMP_temperature;BMP_pressure;BME280_temperature;BME280_humidity;BME280_pressure;Samples;Min_cycle;Max_cycle;Signal;HPM_P1;HPM_P2
2023/09/01 00:00:30;;;;;;;4.07;1.50;;;;;;;;;;4960107;29;19937;-80
2023/09/01 00:03:13;;;;;;;5.63;2.22;;;;;;;;;;4961458;28;20475;-81
2023/09/01 00:05:39;;;;;;;4.22;1.90;;;;;;;;;;4927172;29;20031;-80
2023/09/01 00:08:05;;;;;;;4.65;1.23;;;;;;;;;;4959954;29;20086;-81
2023/09/01 00:10:35;;;;;;;3.28;1.48;;;;;;;;;;4944921;29;20085;-80
2023/09/01 00:13:03;;;;;;;4.18;1.48;;;;;;;;;;4959156;29;20141;-81
2023/09/01 00:15:29;;;;;;;3.00;1.38;;;;;;;;;;4959938;29;20049;-81
2023/09/01 00:17:54;;;;;;;3.38;1.30;;;;;;;;;;4943018;29;20050;-80
2023/09/01 00:20:20;;;;;;;5.20;1.35;;;;;;;;;;4960693;29;20034;-80
2023/09/01 00:22:45;;;;;;;2.95;1.40;;;;;;;;;;4942943;29;20039;-81
2023/09/01 00:25:11;;;;;;;4.00;1.42;;;;;;;;;;4959230;29;20031;-81
2023/09/01 00:27:36;;;;;;;4.80;1.33;;;;;;;;;;4943900;29;20035;-79
2023/09/01 00:30:02;;;;;;;2.65;1.20;;;;;;;;;;4960368;28;20038;-80
2023/09/01 00:32:29;;;;;;;3.45;1.42;;;;;;;;;;4943766;29;20043;-82
2023/09/01 00:34:58;;;;;;;6.60;1.50;;;;;;;;;;4942742;29;20058;-80
2023/09/01 00:37:24;;;;;;;5.00;1.45;;;;;;;;;;4975018;28;20140;-80
2023/09/01 00:39:49;;;;;;;4.45;1.60;;;;;;;;;;4958924;29;20039;-81
2023/09/01 00:42:16;;;;;;;8.48;1.55;;;;;;;;;;4958599;29;20631;-79
2023/09/01 00:44:42;;;;;;;3.38;1.50;;;;;;;;;;4942360;29;20031;-81
2023/09/01 00:47:07;;;;;;;5.45;1.48;;;;;;;;;;4961726;29;20035;-80
2023/09/01 00:49:35;;;;;;;4.25;1.20;;;;;;;;;;4972907;28;20054;-79
2023/09/01 00:52:01;;;;;;;3.20;1.38;;;;;;;;;;4955291;29;20642;-79
2023/09/01 00:54:26;;;;;;;5.68;1.60;;;;;;;;;;4976690;28;20031;-80
2023/09/01 00:56:53;;;;;;;4.80;1.30;;;;;;;;;;4972652;29;20031;-80
2023/09/01 00:59:20;;;;;;;3.83;1.45;;;;;;;;;;4963134;29;20490;-79
2023/09/01 01:01:46;;;;;;;3.05;1.45;;;;;;;;;;4958863;29;20039;-80
2023/09/01 01:04:12;;;;;;;2.65;1.45;;;;;;;;;;4926594;29;20174;-79
2023/09/01 01:06:55;;;;;;;3.17;1.27;;;;;;;;;;4961220;28;20030;-80
2023/09/01 01:09:37;;;;;;;5.95;1.50;;;;;;;;;;4943907;29;20031;-79
2023/09/01 01:12:29;;;;;;;3.50;1.40;;;;;;;;;;4944465;29;20049;-80
2023/09/01 01:14:56;;;;;;;4.20;1.70;;;;;;;;;;4967671;29;20142;-79
2023/09/01 01:17:22;;;;;;;4.40;1.60;;;;;;;;;;4979001;28;20091;-79
2023/09/01 01:19:55;;;;;;;8.82;3.00;;;;;;;;;;4994393;28;20034;-80
2023/09/01 01:22:54;;;;;;;3.22;1.30;;;;;;;;;;4994543;28;20047;-80
2023/09/01 01:25:20;;;;;;;4.38;1.50;;;;;;;;;;4922178;29;20143;-81
2023/09/01 01:27:46;;;;;;;4.07;1.42;;;;;;;;;;4916300;29;20095;-80
2023/09/01 01:30:15;;;;;;;3.20;1.35;;;;;;;;;;4932496;29;20040;-81
2023/09/01 01:32:43;;;;;;;5.38;1.83;;;;;;;;;;4923523;29;20016;-80
2023/09/01 01:35:32;;;;;;;5.53;2.10;;;;;;;;;;4923086;29;20063;-81
2023/09/01 01:38:03;;;;;;;4.32;1.80;;;;;;;;;;4906981;29;20040;-80
2023/09/01 01:40:31;;;;;;;3.47;1.60;;;;;;;;;;4920885;29;20076;-79
2023/09/01 01:43:00;;;;;;;8.90;1.90;;;;;;;;;;4913485;29;20556;-80
2023/09/01 01:45:26;;;;;;;5.75;1.60;;;;;;;;;;4907418;29;20080;-79
2023/09/01 01:47:52;;;;;;;3.08;1.80;;;;;;;;;;4909770;29;20059;-79
2023/09/01 01:50:18;;;;;;;4.70;1.92;;;;;;;;;;4909864;29;20039;-79
2023/09/01 01:52:43;;;;;;;4.28;1.80;;;;;;;;;;4926769;29;20032;-80
2023/09/01 01:55:09;;;;;;;6.25;1.63;;;;;;;;;;4910267;29;20152;-80
2023/09/01 01:57:38;;;;;;;3.28;1.70;;;;;;;;;;4927938;29;20388;-79
2023/09/01 02:00:11;;;;;;;5.57;1.75;;;;;;;;;;4917911;29;20047;-80
2023/09/01 02:02:38;;;;;;;2.92;1.50;;;;;;;;;;4966546;28;20027;-80
2023/09/01 02:05:08;;;;;;;3.83;1.77;;;;;;;;;;4964569;29;20475;-80
2023/09/01 02:07:33;;;;;;;6.07;2.47;;;;;;;;;;4967745;28;20027;-80
2023/09/01 02:09:59;;;;;;;3.13;1.60;;;;;;;;;;4965570;29;20098;-81
2023/09/01 02:12:24;;;;;;;4.03;2.00;;;;;;;;;;4966819;28;20035;-80
2023/09/01 02:14:53;;;;;;;5.13;2.35;;;;;;;;;;4965115;29;20039;-81
2023/09/01 02:17:19;;;;;;;5.55;1.80;;;;;;;;;;4965760;29;20046;-80
2023/09/01 02:19:48;;;;;;;3.65;2.15;;;;;;;;;;4965689;29;20035;-79
2023/09/01 02:22:15;;;;;;;3.78;1.98;;;;;;;;;;4967000;29;20046;-80
2023/09/01 02:24:40;;;;;;;5.78;1.70;;;;;;;;;;4967232;29;20103;-80
2023/09/01 02:27:06;;;;;;;5.90;2.10;;;;;;;;;;4965224;29;20035;-80
2023/09/01 02:29:32;;;;;;;4.03;2.00;;;;;;;;;;4961339;28;20031;-80
2023/09/01 02:32:00;;;;;;;4.43;2.00;;;;;;;;;;4963430;29;20043;-81
2023/09/01 02:34:26;;;;;;;6.25;1.88;;;;;;;;;;4963010;29;20035;-80
2023/09/01 02:36:54;;;;;;;7.95;1.70;;;;;;;;;;4963993;29;20042;-79
2023/09/01 02:39:23;;;;;;;5.60;1.90;;;;;;;;;;4963846;28;20423;-79
2023/09/01 02:41:48;;;;;;;5.05;2.03;;;;;;;;;;4962790;29;20035;-78
2023/09/01 02:44:14;;;;;;;8.27;3.28;;;;;;;;;;4948398;29;20407;-80
2023/09/01 02:46:41;;;;;;;5.63;2.42;;;;;;;;;;4962000;29;20031;-81
2023/09/01 02:49:08;;;;;;;7.32;2.95;;;;;;;;;;4961217;29;20035;-80
2023/09/01 02:51:33;;;;;;;6.15;2.10;;;;;;;;;;4962942;28;20098;-78
2023/09/01 02:54:04;;;;;;;4.50;2.03;;;;;;;;;;4960529;28;20062;-79
2023/09/01 02:56:30;;;;;;;7.32;1.92;;;;;;;;;;4960655;29;20055;-79
2023/09/01 02:58:55;;;;;;;7.72;3.45;;;;;;;;;;4961871;29;20141;-79
2023/09/01 03:01:24;;;;;;;7.30;2.75;;;;;;;;;;4963325;28;20399;-79
2023/09/01 03:03:49;;;;;;;6.30;2.25;;;;;;;;;;4963327;29;20054;-79
2023/09/01 03:06:16;;;;;;;5.55;2.00;;;;;;;;;;4960210;29;20492;-80
2023/09/01 03:08:42;;;;;;;5.80;1.95;;;;;;;;;;4959939;29;20031;-81
2023/09/01 03:11:08;;;;;;;5.35;2.00;;;;;;;;;;4965209;29;20032;-81
2023/09/01 03:13:34;;;;;;;8.70;2.60;;;;;;;;;;4961574;29;20062;-80
2023/09/01 03:16:00;;;;;;;9.43;2.20;;;;;;;;;;4960644;29;20046;-79
2023/09/01 03:18:26;;;;;;;5.78;2.28;;;;;;;;;;4961640;28;20035;-80
2023/09/01 03:20:55;;;;;;;5.93;2.25;;;;;;;;;;4960402;29;20554;-80
2023/09/01 03:23:21;;;;;;;5.18;2.50;;;;;;;;;;4960921;29;20031;-81
2023/09/01 03:25:54;;;;;;;10.57;4.47;;;;;;;;;;4960237;29;20038;-80
2023/09/01 03:28:21;;;;;;;4.32;2.33;;;;;;;;;;4960988;29;20058;-81
2023/09/01 03:30:51;;;;;;;6.32;2.10;;;;;;;;;;4960869;29;20096;-80
2023/09/01 03:33:18;;;;;;;6.53;2.53;;;;;;;;;;4960636;29;20036;-79
2023/09/01 03:35:46;;;;;;;4.90;2.38;;;;;;;;;;4960998;29;20479;-81
2023/09/01 03:38:11;;;;;;;5.85;2.60;;;;;;;;;;4962262;29;20039;-81
2023/09/01 03:40:40;;;;;;;5.55;2.22;;;;;;;;;;4962347;29;20032;-81
2023/09/01 03:43:07;;;;;;;7.80;2.85;;;;;;;;;;4960854;29;20107;-82
2023/09/01 03:45:33;;;;;;;9.50;2.50;;;;;;;;;;4947201;29;20034;-80
2023/09/01 03:47:58;;;;;;;4.35;2.13;;;;;;;;;;4949590;29;20043;-82
2023/09/01 03:50:26;;;;;;;6.90;2.58;;;;;;;;;;4960397;28;20058;-81
2023/09/01 03:52:52;;;;;;;7.18;2.45;;;;;;;;;;4945285;29;20045;-79
2023/09/01 03:55:18;;;;;;;8.07;2.35;;;;;;;;;;4959623;29;20035;-80
2023/09/01 03:57:44;;;;;;;7.40;2.47;;;;;;;;;;4962162;28;20105;-80
2023/09/01 04:00:10;;;;;;;6.90;3.17;;;;;;;;;;4963651;29;20065;-80
2023/09/01 04:02:39;;;;;;;7.50;2.85;;;;;;;;;;4971081;29;20027;-81
2023/09/01 04:05:05;;;;;;;6.05;2.45;;;;;;;;;;4963029;28;20042;-80
2023/09/01 04:07:30;;;;;;;8.40;2.50;;;;;;;;;;4978689;28;20015;-79
2023/09/01 04:09:58;;;;;;;7.65;2.30;;;;;;;;;;4979728;28;20030;-80
2023/09/01 04:12:23;;;;;;;8.73;2.20;;;;;;;;;;4979097;28;20027;-81
2023/09/01 04:14:49;;;;;;;8.13;2.50;;;;;;;;;;4946616;28;20039;-80
2023/09/01 04:17:15;;;;;;;6.20;2.78;;;;;;;;;;4978293;28;20035;-79
2023/09/01 04:19:41;;;;;;;8.88;2.75;;;;;;;;;;4936207;29;20046;-80
2023/09/01 04:22:06;;;;;;;10.05;2.85;;;;;;;;;;4949620;29;20027;-81
2023/09/01 04:24:32;;;;;;;10.15;3.10;;;;;;;;;;4961166;29;20043;-81
2023/09/01 04:26:59;;;;;;;9.80;2.70;;;;;;;;;;4958030;28;20031;-80
2023/09/01 04:29:26;;;;;;;9.98;3.45;;;;;;;;;;4940188;29;20046;-79
2023/09/01 04:31:52;;;;;;;7.78;2.75;;;;;;;;;;4941132;29;20044;-80
2023/09/01 04:34:18;;;;;;;9.05;3.58;;;;;;;;;;4956889;29;20027;-79
2023/09/01 04:36:43;;;;;;;5.70;2.85;;;;;;;;;;4941158;29;20428;-82
2023/09/01 04:39:09;;;;;;;7.80;3.28;;;;;;;;;;4956543;29;20031;-79
2023/09/01 04:41:35;;;;;;;7.22;2.75;;;;;;;;;;4956296;29;20045;-79
2023/09/01 04:44:01;;;;;;;9.25;3.10;;;;;;;;;;4956269;28;20051;-81
2023/09/01 04:46:26;;;;;;;6.40;3.15;;;;;;;;;;4940692;29;20672;-80
2023/09/01 04:48:52;;;;;;;6.93;3.47;;;;;;;;;;4941996;29;20038;-80
2023/09/01 04:51:18;;;;;;;7.07;2.88;;;;;;;;;;4956786;29;20031;-80
2023/09/01 04:53:44;;;;;;;9.23;3.03;;;;;;;;;;4941424;29;20513;-82
2023/09/01 04:56:09;;;;;;;7.43;2.75;;;;;;;;;;4956742;29;20042;-80
2023/09/01 04:58:35;;;;;;;8.05;2.63;;;;;;;;;;4957093;29;20035;-81
2023/09/01 05:01:00;;;;;;;6.95;2.92;;;;;;;;;;4957334;29;20395;-80
2023/09/01 05:03:26;;;;;;;11.00;3.13;;;;;;;;;;4957828;29;20159;-82
2023/09/01 05:05:51;;;;;;;9.18;3.15;;;;;;;;;;4957809;28;20024;-80
2023/09/01 05:08:19;;;;;;;9.93;3.08;;;;;;;;;;4956383;29;20050;-80
2023/09/01 05:10:45;;;;;;;7.97;2.97;;;;;;;;;;4940224;29;20035;-80
2023/09/01 05:13:10;;;;;;;9.18;3.70;;;;;;;;;;4941426;29;20041;-80
2023/09/01 05:15:36;;;;;;;7.85;2.60;;;;;;;;;;4957521;28;20119;-80
2023/09/01 05:18:02;;;;;;;8.13;2.60;;;;;;;;;;4957230;29;20534;-82
2023/09/01 05:20:30;;;;;;;7.95;3.03;;;;;;;;;;4957452;29;20114;-79
2023/09/01 05:22:58;;;;;;;5.20;2.53;;;;;;;;;;4957399;28;20035;-80
2023/09/01 05:25:23;;;;;;;10.75;3.33;;;;;;;;;;4941326;29;20224;-80
2023/09/01 05:27:49;;;;;;;11.20;4.68;;;;;;;;;;4956927;29;20031;-80
2023/09/01 05:30:14;;;;;;;8.80;3.05;;;;;;;;;;4958997;28;20090;-82
2023/09/01 05:32:41;;;;;;;12.43;3.22;;;;;;;;;;4957288;29;20032;-82
2023/09/01 05:35:07;;;;;;;10.35;3.33;;;;;;;;;;4926446;29;20033;-81
2023/09/01 05:37:33;;;;;;;12.32;3.63;;;;;;;;;;4956426;29;20114;-81
2023/09/01 05:39:58;;;;;;;6.68;3.17;;;;;;;;;;4956670;29;20114;-81
2023/09/01 05:42:24;;;;;;;10.10;3.38;;;;;;;;;;4972529;28;20063;-81
2023/09/01 05:44:49;;;;;;;11.05;3.67;;;;;;;;;;4955793;29;20042;-80
2023/09/01 05:47:15;;;;;;;10.15;4.10;;;;;;;;;;4940300;29;20035;-81
2023/09/01 05:49:40;;;;;;;6.60;2.70;;;;;;;;;;4924448;29;20610;-82
2023/09/01 05:52:06;;;;;;;10.25;3.35;;;;;;;;;;4956493;29;20027;-80
2023/09/01 05:54:31;;;;;;;9.38;2.70;;;;;;;;;;4924944;29;20031;-81
2023/09/01 05:56:57;;;;;;;10.85;4.00;;;;;;;;;;4939305;29;20035;-81
2023/09/01 05:59:22;;;;;;;11.05;4.38;;;;;;;;;;4971474;28;20066;-80
2023/09/01 06:01:49;;;;;;;6.68;3.10;;;;;;;;;;4971408;28;20047;-81
2023/09/01 06:04:15;;;;;;;11.15;2.75;;;;;;;;;;4956746;29;20024;-81
2023/09/01 06:06:42;;;;;;;7.78;2.90;;;;;;;;;;4955681;29;20078;-81
2023/09/01 06:09:07;;;;;;;6.57;3.25;;;;;;;;;;4940193;29;20050;-82
2023/09/01 06:11:33;;;;;;;10.27;2.97;;;;;;;;;;4954890;29;20078;-81
2023/09/01 06:13:59;;;;;;;10.70;2.72;;;;;;;;;;4954877;29;20034;-80
2023/09/01 06:16:25;;;;;;;6.32;3.10;;;;;;;;;;4956334;29;20027;-79
2023/09/01 06:18:51;;;;;;;10.18;3.10;;;;;;;;;;4954882;29;20043;-80
2023/09/01 06:21:17;;;;;;;11.82;3.70;;;;;;;;;;4939598;29;20059;-80
2023/09/01 06:23:44;;;;;;;7.00;2.75;;;;;;;;;;4957286;29;20152;-82
2023/09/01 06:26:11;;;;;;;9.07;3.22;;;;;;;;;;4971543;28;20424;-82
2023/09/01 06:28:37;;;;;;;6.57;2.92;;;;;;;;;;4956066;28;20083;-81
2023/09/01 06:31:02;;;;;;;8.65;3.05;;;;;;;;;;4960096;29;20055;-81
2023/09/01 06:33:28;;;;;;;9.32;3.47;;;;;;;;;;4959736;28;20031;-80
2023/09/01 06:35:53;;;;;;;11.88;3.20;;;;;;;;;;4943583;29;20137;-80
2023/09/01 06:38:19;;;;;;;12.38;3.45;;;;;;;;;;4977885;28;20494;-82
2023/09/01 06:40:44;;;;;;;9.70;3.92;;;;;;;;;;4948117;29;20031;-80
2023/09/01 06:43:12;;;;;;;9.38;3.17;;;;;;;;;;4972611;29;20050;-80
2023/09/01 06:45:38;;;;;;;10.48;3.80;;;;;;;;;;4949127;29;20031;-80
2023/09/01 06:48:04;;;;;;;9.20;2.85;;;;;;;;;;4978404;28;20062;-80
2023/09/01 06:50:29;;;;;;;13.63;3.40;;;;;;;;;;4980252;28;20027;-79
2023/09/01 06:52:55;;;;;;;11.30;2.92;;;;;;;;;;4946140;29;20031;-80
2023/09/01 06:55:21;;;;;;;10.52;3.35;;;;;;;;;;4948272;29;20031;-81
2023/09/01 06:57:46;;;;;;;10.23;3.20;;;;;;;;;;4963472;28;20031;-80
2023/09/01 07:00:12;;;;;;;7.38;2.78;;;;;;;;;;4974292;29;20043;-79
2023/09/01 07:02:38;;;;;;;10.30;2.85;;;;;;;;;;4971882;29;20023;-81
2023/09/01 07:05:04;;;;;;;10.23;3.17;;;;;;;;;;4972093;28;20511;-81
2023/09/01 07:07:30;;;;;;;12.70;3.03;;;;;;;;;;4930012;29;20035;-80
2023/09/01 07:09:55;;;;;;;11.85;3.63;;;;;;;;;;4958491;29;20081;-80
2023/09/01 07:12:21;;;;;;;9.35;3.90;;;;;;;;;;4958190;29;20039;-80
2023/09/01 07:14:46;;;;;;;7.63;3.45;;;;;;;;;;4942693;29;20035;-80
2023/09/01 07:17:12;;;;;;;9.25;3.13;;;;;;;;;;4960471;29;20037;-81
2023/09/01 07:19:37;;;;;;;10.27;3.53;;;;;;;;;;4974448;28;20053;-81
2023/09/01 07:22:05;;;;;;;8.02;3.28;;;;;;;;;;4957866;29;20031;-80
2023/09/01 07:24:31;;;;;;;11.32;3.30;;;;;;;;;;4942416;29;20070;-79
2023/09/01 07:26:56;;;;;;;9.45;2.80;;;;;;;;;;4959227;29;20399;-81
2023/09/01 07:29:22;;;;;;;6.63;2.83;;;;;;;;;;4974080;28;20037;-80
2023/09/01 07:31:48;;;;;;;7.93;3.03;;;;;;;;;;4942271;29;20509;-81
2023/09/01 07:34:13;;;;;;;6.68;2.53;;;;;;;;;;4942422;29;20039;-81
2023/09/01 07:36:39;;;;;;;12.77;2.67;;;;;;;;;;4942502;29;20043;-81
2023/09/01 07:39:04;;;;;;;9.45;3.03;;;;;;;;;;4926885;29;20652;-80
2023/09/01 07:41:30;;;;;;;16.38;5.18;;;;;;;;;;4941175;29;20031;-78
2023/09/01 07:43:55;;;;;;;9.05;2.72;;;;;;;;;;4957671;29;20030;-80
2023/09/01 07:46:21;;;;;;;10.48;3.20;;;;;;;;;;4958402;29;20020;-82
2023/09/01 07:48:47;;;;;;;6.88;2.67;;;;;;;;;;4941218;29;20098;-81
2023/09/01 07:51:13;;;;;;;12.95;2.95;;;;;;;;;;4957653;29;20039;-79
2023/09/01 07:53:41;;;;;;;9.80;3.10;;;;;;;;;;4958710;29;20027;-81
2023/09/01 07:56:10;;;;;;;6.15;2.58;;;;;;;;;;4958560;28;20206;-80
2023/09/01 07:58:35;;;;;;;11.88;3.08;;;;;;;;;;4974117;28;20027;-80
2023/09/01 08:01:01;;;;;;;9.52;3.40;;;;;;;;;;4958796;29;20098;-81
2023/09/01 08:03:26;;;;;;;7.93;2.95;;;;;;;;;;4960005;28;20035;-80
2023/09/01 08:05:52;;;;;;;6.53;3.15;;;;;;;;;;4957350;29;20031;-81
2023/09/01 08:08:17;;;;;;;7.90;3.03;;;;;;;;;;4958545;29;20059;-79
2023/09/01 08:10:43;;;;;;;9.20;3.35;;;;;;;;;;4958629;29;20062;-79
2023/09/01 08:13:08;;;;;;;6.57;2.67;;;;;;;;;;4958142;28;20078;-81
2023/09/01 08:15:34;;;;;;;8.07;3.78;;;;;;;;;;4956858;29;20086;-80
2023/09/01 08:17:59;;;;;;;12.30;3.40;;;;;;;;;;4958457;28;20042;-81
2023/09/01 08:20:26;;;;;;;7.00;2.75;;;;;;;;;;4973536;28;20031;-80
2023/09/01 08:22:51;;;;;;;7.78;2.65;;;;;;;;;;4974211;28;20035;-80
2023/09/01 08:25:17;;;;;;;10.85;2.70;;;;;;;;;;4958142;29;20038;-80
2023/09/01 08:27:43;;;;;;;9.95;3.33;;;;;;;;;;4960847;28;20051;-80
2023/09/01 08:30:09;;;;;;;7.90;2.78;;;;;;;;;;4967583;28;20035;-81
2023/09/01 08:32:34;;;;;;;8.27;3.00;;;;;;;;;;4986742;28;20035;-81
2023/09/01 08:35:02;;;;;;;9.00;3.05;;;;;;;;;;4947612;29;20039;-80
2023/09/01 08:37:27;;;;;;;5.25;2.58;;;;;;;;;;4965151;29;20042;-81
2023/09/01 08:39:55;;;;;;;8.75;2.60;;;;;;;;;;4964509;28;20101;-81
2023/09/01 08:42:21;;;;;;;8.32;2.53;;;;;;;;;;4960452;28;20437;-81
2023/09/01 08:44:48;;;;;;;9.27;2.63;;;;;;;;;;4959827;29;20027;-81
2023/09/01 08:47:14;;;;;;;9.68;2.67;;;;;;;;;;4941687;29;20495;-80
2023/09/01 08:49:40;;;;;;;8.85;2.78;;;;;;;;;;4958446;29;20034;-80
2023/09/01 08:52:05;;;;;;;7.18;2.30;;;;;;;;;;4924092;29;20485;-80
2023/09/01 08:54:33;;;;;;;9.30;2.75;;;;;;;;;;4956128;29;20019;-79
2023/09/01 08:56:59;;;;;;;9.07;3.00;;;;;;;;;;4956178;28;20043;-81
2023/09/01 08:59:28;;;;;;;9.27;3.28;;;;;;;;;;4956969;29;20145;-80
2023/09/01 09:01:53;;;;;;;9.27;2.72;;;;;;;;;;4957196;29;20050;-80
2023/09/01 09:04:19;;;;;;;9.07;3.00;;;;;;;;;;4956584;29;20037;-79
2023/09/01 09:06:45;;;;;;;7.68;2.40;;;;;;;;;;4939985;29;20114;-81
2023/09/01 09:09:13;;;;;;;7.72;2.67;;;;;;;;;;4956017;29;20031;-81
2023/09/01 09:11:39;;;;;;;12.77;2.67;;;;;;;;;;4957793;28;20399;-82
2023/09/01 09:14:06;;;;;;;8.63;2.67;;;;;;;;;;4956282;29;20035;-80
2023/09/01 09:16:31;;;;;;;6.35;2.60;;;;;;;;;;4957073;28;20054;-80
2023/09/01 09:18:57;;;;;;;10.15;2.65;;;;;;;;;;4941454;29;20035;-80
2023/09/01 09:21:24;;;;;;;7.72;2.53;;;;;;;;;;4959762;29;20031;-82
2023/09/01 09:23:54;;;;;;;9.43;3.05;;;;;;;;;;4943617;29;20074;-81
2023/09/01 09:26:27;;;;;;;6.90;2.40;;;;;;;;;;4944285;29;20035;-81
2023/09/01 09:29:02;;;;;;;13.02;2.88;;;;;;;;;;4979020;28;20031;-82
2023/09/01 09:31:33;;;;;;;7.85;2.50;;;;;;;;;;4968739;29;20042;-81
2023/09/01 09:34:10;;;;;;;7.13;2.63;;;;;;;;;;4973840;29;20224;-81
2023/09/01 09:36:36;;;;;;;9.13;2.70;;;;;;;;;;4977600;28;20042;-81
2023/09/01 09:39:03;;;;;;;6.68;2.80;;;;;;;;;;4976437;28;20019;-81
2023/09/01 09:41:43;;;;;;;8.30;2.45;;;;;;;;;;4960945;28;20105;-80
2023/09/01 09:44:09;;;;;;;5.90;2.42;;;;;;;;;;4971120;28;20038;-79
2023/09/01 09:46:41;;;;;;;8.68;2.40;;;;;;;;;;4956720;29;20027;-81
2023/09/01 09:49:08;;;;;;;8.55;2.60;;;;;;;;;;4956900;28;20031;-80
2023/09/01 09:51:34;;;;;;;6.65;2.58;;;;;;;;;;4940091;29;20039;-81
2023/09/01 09:54:01;;;;;;;11.48;3.25;;;;;;;;;;4956130;29;20384;-82
2023/09/01 09:56:30;;;;;;;7.57;2.33;;;;;;;;;;4955563;29;20035;-81
2023/09/01 09:58:57;;;;;;;6.30;1.90;;;;;;;;;;4972536;28;20468;-81
2023/09/01 10:01:24;;;;;;;6.43;1.70;;;;;;;;;;4939229;29;20031;-80
2023/09/01 10:03:49;;;;;;;8.32;2.20;;;;;;;;;;4958329;28;20039;-82
2023/09/01 10:06:18;;;;;;;8.02;2.00;;;;;;;;;;4961248;29;20034;-80
2023/09/01 10:08:44;;;;;;;6.63;2.38;;;;;;;;;;4961727;28;20023;-81
2023/09/01 10:11:10;;;;;;;9.13;2.30;;;;;;;;;;4945178;29;20070;-80
2023/09/01 10:13:36;;;;;;;5.82;2.22;;;;;;;;;;4962469;29;20110;-81
2023/09/01 10:16:02;;;;;;;4.80;1.95;;;;;;;;;;4959450;29;20114;-80
2023/09/01 10:18:29;;;;;;;7.53;2.08;;;;;;;;;;4960193;29;20558;-80
2023/09/01 10:20:55;;;;;;;6.88;2.08;;;;;;;;;;4942297;29;20042;-80
2023/09/01 10:23:26;;;;;;;4.25;1.70;;;;;;;;;;4959817;28;20474;-79
2023/09/01 10:26:11;;;;;;;7.10;2.47;;;;;;;;;;4959269;29;20035;-80
2023/09/01 10:28:56;;;;;;;5.65;2.20;;;;;;;;;;4959906;29;20086;-80
2023/09/01 10:31:23;;;;;;;6.07;1.77;;;;;;;;;;4958604;29;20039;-80
2023/09/01 10:34:04;;;;;;;6.80;2.40;;;;;;;;;;4942921;29;20514;-80
2023/09/01 10:36:29;;;;;;;4.63;1.88;;;;;;;;;;4927826;29;20093;-80
2023/09/01 10:39:02;;;;;;;9.27;1.95;;;;;;;;;;4942938;29;20456;-80
2023/09/01 10:41:47;;;;;;;7.70;2.33;;;;;;;;;;4958680;29;20035;-79
2023/09/01 10:44:12;;;;;;;4.32;2.00;;;;;;;;;;4959342;28;20035;-81
2023/09/01 10:46:38;;;;;;;4.75;1.70;;;;;;;;;;5018224;23;20410;-77
2023/09/01 10:49:07;;;;;;;6.22;1.77;;;;;;;;;;4962106;28;20499;-77
2023/09/01 10:51:43;;;;;;;5.63;1.85;;;;;;;;;;4978834;28;20023;-78
2023/09/01 10:54:15;;;;;;;6.60;2.15;;;;;;;;;;4946593;28;20077;-77
2023/09/01 10:56:57;;;;;;;6.95;2.20;;;;;;;;;;4962607;28;20395;-77
2023/09/01 10:59:30;;;;;;;4.85;1.83;;;;;;;;;;4965216;28;20066;-78
2023/09/01 11:01:55;;;;;;;8.13;1.92;;;;;;;;;;4980042;28;20031;-78
2023/09/01 11:04:21;;;;;;;4.20;1.70;;;;;;;;;;4964506;28;20058;-77
2023/09/01 11:06:56;;;;;;;6.13;1.95;;;;;;;;;;4981088;28;20101;-78
2023/09/01 11:09:22;;;;;;;5.07;2.20;;;;;;;;;;4985335;28;20035;-78
2023/09/01 11:11:51;;;;;;;6.35;1.83;;;;;;;;;;4953401;28;20026;-79
2023/09/01 11:14:20;;;;;;;3.95;1.80;;;;;;;;;;4984682;28;20035;-77
2023/09/01 11:16:46;;;;;;;5.15;2.85;;;;;;;;;;4968883;28;20035;-77
2023/09/01 11:19:11;;;;;;;4.05;1.70;;;;;;;;;;4972494;28;20039;-78
2023/09/01 11:21:37;;;;;;;6.35;2.15;;;;;;;;;;4990899;28;20119;-78
2023/09/01 11:24:05;;;;;;;6.10;1.50;;;;;;;;;;4963995;28;20038;-78
2023/09/01 11:26:31;;;;;;;8.07;2.00;;;;;;;;;;4984846;28;20065;-78
2023/09/01 11:28:56;;;;;;;5.45;1.90;;;;;;;;;;4972169;28;20070;-78
2023/09/01 11:31:22;;;;;;;7.32;2.10;;;;;;;;;;4972244;28;20380;-79
2023/09/01 11:33:52;;;;;;;3.97;1.60;;;;;;;;;;4982657;28;20050;-78
2023/09/01 11:36:18;;;;;;;6.53;1.80;;;;;;;;;;4986677;28;20029;-78
2023/09/01 11:38:44;;;;;;;4.60;1.77;;;;;;;;;;4983870;28;20389;-78
2023/09/01 11:41:13;;;;;;;5.32;1.60;;;;;;;;;;4967758;28;20138;-79
2023/09/01 11:43:42;;;;;;;6.20;1.33;;;;;;;;;;4985937;28;20027;-78
2023/09/01 11:46:10;;;;;;;4.90;1.50;;;;;;;;;;4984411;28;20039;-77
2023/09/01 11:48:36;;;;;;;3.90;1.48;;;;;;;;;;4968429;28;20043;-78
2023/09/01 11:51:02;;;;;;;3.83;1.70;;;;;;;;;;4982952;28;20042;-77
2023/09/01 11:53:29;;;;;;;5.50;1.60;;;;;;;;;;4980409;28;20074;-78
2023/09/01 11:55:59;;;;;;;8.73;1.52;;;;;;;;;;4948633;28;20062;-77
2023/09/01 11:58:25;;;;;;;4.70;1.65;;;;;;;;;;4979182;28;20029;-77
2023/09/01 12:00:51;;;;;;;4.22;1.40;;;;;;;;;;4944468;28;20049;-79
2023/09/01 12:03:21;;;;;;;7.57;1.50;;;;;;;;;;4961134;28;20458;-77
2023/09/01 12:05:47;;;;;;;3.15;1.30;;;;;;;;;;4944466;28;20715;-79
2023/09/01 12:08:13;;;;;;;6.20;1.20;;;;;;;;;;4959650;28;20127;-78
2023/09/01 12:10:41;;;;;;;5.20;1.05;;;;;;;;;;4976762;28;20034;-77
2023/09/01 12:13:07;;;;;;;;;;;;;;;;;;4978199;28;20236;-78
2023/09/01 12:15:34;;;;;;;3.30;1.05;;;;;;;;;;4974119;28;19968;-78
2023/09/01 12:18:18;;;;;;;4.65;1.20;;;;;;;;;;4974615;28;20038;-78
2023/09/01 12:20:44;;;;;;;1.90;0.82;;;;;;;;;;4975710;28;20455;-78
2023/09/01 12:23:09;;;;;;;3.20;1.17;;;;;;;;;;4978306;28;20034;-78
2023/09/01 12:25:35;;;;;;;5.63;1.10;;;;;;;;;;4980428;28;20029;-78
2023/09/01 12:28:00;;;;;;;2.22;1.23;;;;;;;;;;4962044;28;20049;-78
2023/09/01 12:30:26;;;;;;;3.70;1.23;;;;;;;;;;4943938;28;20030;-78
2023/09/01 12:32:55;;;;;;;4.05;1.30;;;;;;;;;;4974860;28;20058;-77
2023/09/01 12:35:20;;;;;;;3.72;1.38;;;;;;;;;;4974809;28;20031;-77
2023/09/01 12:37:46;;;;;;;5.85;1.77;;;;;;;;;;4974880;28;20370;-78
2023/09/01 12:40:14;;;;;;;3.88;1.30;;;;;;;;;;4944144;28;20031;-77
2023/09/01 12:42:40;;;;;;;5.25;1.33;;;;;;;;;;4976458;28;20034;-78
2023/09/01 12:45:06;;;;;;;3.72;1.20;;;;;;;;;;4974946;28;20198;-78
2023/09/01 12:47:31;;;;;;;1.95;0.93;;;;;;;;;;4975760;28;20178;-78
2023/09/01 12:49:57;;;;;;;3.65;0.90;;;;;;;;;;4975886;28;20493;-76
2023/09/01 12:52:23;;;;;;;2.92;1.08;;;;;;;;;;4943218;28;20035;-78
2023/09/01 12:54:49;;;;;;;2.47;0.95;;;;;;;;;;4975920;28;20023;-77
2023/09/01 12:57:14;;;;;;;3.13;1.20;;;;;;;;;;4975477;28;20462;-77
2023/09/01 12:59:40;;;;;;;3.92;1.23;;;;;;;;;;4975755;28;20027;-78
2023/09/01 13:02:05;;;;;;;1.83;0.93;;;;;;;;;;4977205;28;20112;-77
2023/09/01 13:04:32;;;;;;;2.65;1.05;;;;;;;;;;4958546;28;20041;-77
2023/09/01 13:06:58;;;;;;;3.90;1.00;;;;;;;;;;4942786;28;20042;-77
2023/09/01 13:09:23;;;;;;;1.98;0.80;;;;;;;;;;4975350;28;20560;-78
2023/09/01 13:11:49;;;;;;;4.82;1.30;;;;;;;;;;4975725;28;20614;-77
2023/09/01 13:14:15;;;;;;;2.65;1.00;;;;;;;;;;4943220;28;20070;-77
2023/09/01 13:16:41;;;;;;;4.63;1.45;;;;;;;;;;4974191;28;20066;-77
2023/09/01 13:19:06;;;;;;;1.98;0.85;;;;;;;;;;4974001;28;20502;-77
2023/09/01 13:21:32;;;;;;;2.00;1.00;;;;;;;;;;4959077;28;20034;-78
2023/09/01 13:23:59;;;;;;;4.18;1.00;;;;;;;;;;4942546;28;20551;-78
2023/09/01 13:26:24;;;;;;;2.72;1.23;;;;;;;;;;4958744;28;20031;-78
2023/09/01 13:28:50;;;;;;;5.30;1.10;;;;;;;;;;4975279;28;20113;-77
2023/09/01 13:31:16;;;;;;;4.85;1.23;;;;;;;;;;4942352;28;20031;-77
2023/09/01 13:33:41;;;;;;;2.95;0.90;;;;;;;;;;4958882;28;20038;-78
2023/09/01 13:36:07;;;;;;;3.53;0.90;;;;;;;;;;4976799;28;20059;-78
2023/09/01 13:38:36;;;;;;;2.88;1.10;;;;;;;;;;4977333;28;20094;-78
2023/09/01 13:41:02;;;;;;;1.95;1.00;;;;;;;;;;4962998;28;20102;-78
2023/09/01 13:43:28;;;;;;;1.63;0.75;;;;;;;;;;4980927;28;20026;-78
2023/09/01 13:45:55;;;;;;;2.35;1.00;;;;;;;;;;4965616;28;20058;-78
2023/09/01 13:48:20;;;;;;;1.65;0.73;;;;;;;;;;4983258;28;20036;-78
2023/09/01 13:50:46;;;;;;;1.77;0.75;;;;;;;;;;4961150;28;20053;-78
2023/09/01 13:53:12;;;;;;;3.78;1.00;;;;;;;;;;4996348;28;20074;-80
2023/09/01 13:55:37;;;;;;;3.30;0.90;;;;;;;;;;4999769;28;20043;-78
2023/09/01 13:58:03;;;;;;;2.33;0.93;;;;;;;;;;4978448;28;20068;-78
2023/09/01 14:00:29;;;;;;;3.70;1.48;;;;;;;;;;4965772;28;20039;-78
2023/09/01 14:02:54;;;;;;;3.60;1.23;;;;;;;;;;4963920;28;20038;-79
2023/09/01 14:05:20;;;;;;;2.40;1.00;;;;;;;;;;4946992;28;20045;-78
2023/09/01 14:07:45;;;;;;;2.63;1.23;;;;;;;;;;4962460;28;20038;-78
2023/09/01 14:10:11;;;;;;;2.83;1.10;;;;;;;;;;4978788;28;20100;-78
2023/09/01 14:12:36;;;;;;;1.73;1.02;;;;;;;;;;4979961;28;20022;-78
2023/09/01 14:15:03;;;;;;;4.10;1.00;;;;;;;;;;4962573;28;20474;-79
2023/09/01 14:17:29;;;;;;;3.30;1.20;;;;;;;;;;4945957;28;20039;-79
2023/09/01 14:19:54;;;;;;;4.53;1.33;;;;;;;;;;4962323;28;20039;-78
2023/09/01 14:22:20;;;;;;;2.42;1.00;;;;;;;;;;4946150;28;20483;-79
2023/09/01 14:24:45;;;;;;;4.38;0.93;;;;;;;;;;4961665;28;20026;-77
2023/09/01 14:27:14;;;;;;;4.30;1.05;;;;;;;;;;4961017;28;20037;-76
2023/09/01 14:29:39;;;;;;;;;;;;;;;;;;4977256;28;20026;-78
2023/09/01 14:32:05;;;;;;;2.25;0.80;;;;;;;;;;4976555;28;20428;-77
2023/09/01 14:34:31;;;;;;;2.20;0.95;;;;;;;;;;4977321;28;20030;-78
2023/09/01 14:36:56;;;;;;;3.47;1.00;;;;;;;;;;4976244;28;20058;-77
2023/09/01 14:39:22;;;;;;;2.55;1.10;;;;;;;;;;4945136;28;20042;-78
2023/09/01 14:41:51;;;;;;;2.33;1.05;;;;;;;;;;4960623;28;20089;-78